Time;durP1;ratioP1;P1;durP2;ratioP2;P2;SDS_P1;SDS_P2;PMS_P1;PMS_P2;Temp;Humidity;BMP_temperature;BMP_pressure;BME280_temperature;BME280_humidity;BME280_pressure;Samples;Min_cycle;Max_cycle;Signal;HPM_P1;HPM_P2
2022/10/13 00:02:24;;;;;;;17.90;7.22;;;4.70;99.90;;;;;;4934832;28;20071;-77
2022/10/13 00:04:49;;;;;;;11.75;5.82;;;4.70;99.90;;;;;;4939610;29;20036;-77
2022/10/13 00:07:14;;;;;;;17.15;5.70;;;4.80;99.90;;;;;;4940805;29;20039;-77
2022/10/13 00:09:40;;;;;;;13.10;6.20;;;4.80;99.90;;;;;;4939972;29;20038;-77
2022/10/13 00:12:05;;;;;;;13.77;6.13;;;4.70;99.90;;;;;;4939834;29;20434;-77
2022/10/13 00:14:31;;;;;;;14.80;5.68;;;4.70;99.90;;;;;;4947143;28;20022;-76
2022/10/13 00:16:56;;;;;;;13.52;6.13;;;4.70;99.90;;;;;;4943912;28;20038;-76
2022/10/13 00:19:22;;;;;;;9.98;5.72;;;4.70;99.90;;;;;;4944820;29;20031;-76
2022/10/13 00:21:47;;;;;;;12.40;6.18;;;4.60;99.90;;;;;;4941304;29;20082;-76
2022/10/13 00:24:13;;;;;;;12.95;5.95;;;4.60;99.90;;;;;;4938335;28;20036;-77
2022/10/13 00:26:38;;;;;;;18.08;6.00;;;4.60;99.90;;;;;;4937517;29;20020;-77
2022/10/13 00:29:04;;;;;;;12.43;5.75;;;4.60;99.90;;;;;;4933651;29;20050;-76
2022/10/13 00:31:31;;;;;;;15.73;5.95;;;4.60;99.90;;;;;;4936149;29;20399;-77
2022/10/13 00:33:58;;;;;;;16.60;5.88;;;4.60;99.90;;;;;;4934207;29;20269;-77
2022/10/13 00:36:24;;;;;;;15.65;5.20;;;4.50;99.90;;;;;;4945298;28;20039;-77
2022/10/13 00:38:50;;;;;;;11.85;6.07;;;4.50;99.90;;;;;;4950570;29;20079;-77
2022/10/13 00:41:16;;;;;;;10.20;5.60;;;4.50;99.90;;;;;;4948665;28;20042;-77
2022/10/13 00:43:56;;;;;;;15.45;6.20;;;4.50;99.90;;;;;;4943308;28;20044;-77
2022/10/13 00:46:24;;;;;;;14.18;5.72;;;4.50;99.90;;;;;;4941750;28;20447;-77
2022/10/13 00:48:50;;;;;;;12.32;5.15;;;4.40;99.90;;;;;;4946101;28;20395;-77
2022/10/13 00:51:19;;;;;;;12.50;5.15;;;4.40;99.90;;;;;;4940692;28;20043;-77
2022/10/13 00:53:47;;;;;;;10.93;5.30;;;4.50;99.90;;;;;;4937649;28;20150;-77
2022/10/13 00:56:15;;;;;;;11.05;5.65;;;4.50;99.90;;;;;;4950796;28;20035;-77
2022/10/13 00:58:42;;;;;;;9.65;5.10;;;4.50;99.90;;;;;;4943817;28;20428;-77
2022/10/13 01:01:08;;;;;;;11.20;5.13;;;4.50;99.90;;;;;;4945031;28;20115;-77
2022/10/13 01:03:34;;;;;;;10.95;5.28;;;4.40;99.90;;;;;;4938456;29;20114;-77
2022/10/13 01:06:03;;;;;;;14.35;4.78;;;4.40;99.90;;;;;;4945030;28;20047;-77
2022/10/13 01:08:29;;;;;;;16.00;6.10;;;4.40;99.90;;;;;;4939688;28;20038;-77
2022/10/13 01:11:13;;;;;;;13.48;5.57;;;4.40;99.90;;;;;;4939678;29;20028;-77
2022/10/13 01:13:41;;;;;;;12.32;5.03;;;4.40;99.90;;;;;;4945522;29;20566;-77
2022/10/13 01:16:18;;;;;;;9.32;4.80;;;4.30;99.90;;;;;;4944579;28;20027;-77
2022/10/13 01:19:07;;;;;;;11.60;5.35;;;4.40;99.90;;;;;;4941591;29;20043;-77
2022/10/13 01:21:40;;;;;;;13.95;4.93;;;4.30;99.90;;;;;;4936546;29;21011;-77
2022/10/13 01:24:22;;;;;;;8.40;4.68;;;4.40;99.90;;;;;;4935097;28;20449;-77
2022/10/13 01:27:03;;;;;;;10.48;4.95;;;4.30;99.90;;;;;;4942182;29;20098;-77
2022/10/13 01:29:53;;;;;;;13.57;5.00;;;4.30;99.90;;;;;;4941880;28;20403;-77
2022/10/13 01:32:39;;;;;;;9.93;4.68;;;4.20;99.90;;;;;;4933897;28;20569;-77
2022/10/13 01:35:07;;;;;;;10.93;4.72;;;4.20;99.90;;;;;;4938214;29;20542;-77
2022/10/13 01:37:44;;;;;;;11.02;5.25;;;4.30;99.90;;;;;;4938416;29;20486;-77
2022/10/13 01:40:31;;;;;;;10.32;4.47;;;4.20;99.90;;;;;;4939992;28;20517;-76
2022/10/13 01:43:05;;;;;;;10.52;4.90;;;4.20;99.90;;;;;;4944842;28;20031;-77
2022/10/13 01:45:37;;;;;;;12.10;4.57;;;4.10;99.90;;;;;;4940743;28;20051;-77
2022/10/13 01:48:04;;;;;;;10.27;4.78;;;4.10;99.90;;;;;;4946380;28;20039;-76
2022/10/13 01:50:33;;;;;;;10.00;4.55;;;4.20;99.90;;;;;;4945561;29;20033;-77
2022/10/13 01:53:01;;;;;;;14.90;5.88;;;4.10;99.90;;;;;;4940676;28;20110;-76
2022/10/13 01:55:28;;;;;;;11.05;4.88;;;4.20;99.90;;;;;;4935827;29;20031;-77
2022/10/13 01:57:54;;;;;;;8.82;4.60;;;4.20;99.90;;;;;;4942193;28;20032;-77
2022/10/13 02:00:21;;;;;;;9.82;4.97;;;4.20;99.90;;;;;;4944773;28;20034;-77
2022/10/13 02:03:22;;;;;;;11.38;4.88;;;4.20;99.90;;;;;;4944188;28;20516;-77
2022/10/13 02:05:59;;;;;;;12.57;5.50;;;4.20;99.90;;;;;;4941834;28;20035;-77
2022/10/13 02:08:41;;;;;;;10.18;4.63;;;4.20;99.90;;;;;;4943632;28;20482;-77
2022/10/13 02:11:16;;;;;;;10.07;5.00;;;4.30;99.90;;;;;;4940485;29;20049;-77
2022/10/13 02:13:53;;;;;;;9.50;4.57;;;4.20;99.90;;;;;;4935855;28;20035;-77
2022/10/13 02:16:22;;;;;;;7.03;3.97;;;4.20;99.90;;;;;;4936831;28;20035;-76
2022/10/13 02:18:49;;;;;;;8.18;4.32;;;4.10;99.90;;;;;;4943547;29;20039;-77
2022/10/13 02:21:15;;;;;;;11.40;5.07;;;4.10;99.90;;;;;;4950482;29;20027;-77
2022/10/13 02:23:42;;;;;;;10.95;4.85;;;4.10;99.90;;;;;;4945931;28;20544;-77
2022/10/13 02:26:08;;;;;;;11.73;4.07;;;4.10;99.90;;;;;;4935462;29;20039;-77
2022/10/13 02:28:36;;;;;;;10.95;4.85;;;4.10;99.90;;;;;;4946573;29;20086;-77
2022/10/13 02:31:02;;;;;;;8.82;4.68;;;4.10;99.90;;;;;;4932830;28;20398;-77
2022/10/13 02:33:28;;;;;;;9.63;4.90;;;4.10;99.90;;;;;;4936734;29;20038;-77
2022/10/13 02:35:53;;;;;;;16.15;5.10;;;4.00;99.90;;;;;;4940871;28;20023;-77
2022/10/13 02:38:19;;;;;;;8.38;4.15;;;4.00;99.90;;;;;;4953698;28;20038;-77
2022/10/13 02:40:44;;;;;;;9.57;4.25;;;4.10;99.90;;;;;;4938274;29;20035;-77
2022/10/13 02:43:10;;;;;;;12.68;4.97;;;4.10;99.90;;;;;;4941115;28;20161;-76
2022/10/13 02:45:35;;;;;;;12.30;4.90;;;4.10;99.90;;;;;;4944958;29;20031;-78
2022/10/13 02:48:01;;;;;;;7.38;4.20;;;4.10;99.90;;;;;;4942586;29;20430;-79
2022/10/13 02:50:26;;;;;;;12.02;5.05;;;4.00;99.90;;;;;;4946797;29;20043;-79
2022/10/13 02:52:52;;;;;;;9.80;4.53;;;4.00;99.90;;;;;;4948929;29;20046;-78
2022/10/13 02:55:17;;;;;;;11.02;4.43;;;4.00;99.90;;;;;;4948338;29;20395;-78
2022/10/13 02:57:43;;;;;;;9.40;5.60;;;4.00;99.90;;;;;;4928344;29;20066;-78
2022/10/13 03:00:09;;;;;;;8.57;4.72;;;4.00;99.90;;;;;;4943916;28;20495;-78
2022/10/13 03:02:34;;;;;;;9.27;4.50;;;4.00;99.90;;;;;;4940540;28;20098;-78
2022/10/13 03:05:00;;;;;;;12.65;5.05;;;3.90;99.90;;;;;;4946124;29;20027;-78
2022/10/13 03:07:25;;;;;;;8.88;4.18;;;3.90;99.90;;;;;;4937355;29;20336;-78
2022/10/13 03:09:51;;;;;;;12.98;4.88;;;3.90;99.90;;;;;;4943895;29;20433;-78
2022/10/13 03:12:16;;;;;;;14.10;5.50;;;4.00;99.90;;;;;;4938594;28;20589;-78
2022/10/13 03:14:42;;;;;;;9.55;4.95;;;4.00;99.90;;;;;;4935252;29;20033;-78
2022/10/13 03:17:08;;;;;;;9.27;4.90;;;4.00;99.90;;;;;;4942936;28;20401;-78
2022/10/13 03:19:33;;;;;;;16.33;5.10;;;3.90;99.90;;;;;;4941944;29;20086;-77
2022/10/13 03:21:58;;;;;;;15.02;5.95;;;3.90;99.90;;;;;;4942654;29;20114;-77
2022/10/13 03:24:24;;;;;;;14.90;6.32;;;3.90;99.90;;;;;;4940391;29;20038;-77
2022/10/13 03:26:49;;;;;;;17.00;5.95;;;4.00;99.90;;;;;;4938521;29;20059;-76
2022/10/13 03:29:17;;;;;;;14.18;5.57;;;3.90;99.90;;;;;;4937979;29;20047;-81
2022/10/13 03:31:43;;;;;;;17.73;6.70;;;3.90;99.90;;;;;;4940961;28;20526;-89
2022/10/13 03:34:09;;;;;;;13.30;6.43;;;3.90;99.90;;;;;;4941841;28;20039;-87
2022/10/13 03:36:35;;;;;;;15.20;6.03;;;4.00;99.90;;;;;;4939770;29;20407;-85
2022/10/13 03:39:00;;;;;;;14.70;5.82;;;4.10;99.90;;;;;;4936049;28;20035;-85
2022/10/13 03:41:26;;;;;;;18.63;7.50;;;4.20;99.90;;;;;;4937770;29;20482;-83
2022/10/13 03:43:52;;;;;;;14.27;5.75;;;4.30;99.90;;;;;;4937299;29;20028;-83
2022/10/13 03:46:18;;;;;;;15.40;6.10;;;4.40;99.90;;;;;;4938959;28;20432;-83
2022/10/13 03:48:45;;;;;;;10.40;4.70;;;4.50;99.90;;;;;;4945892;29;20058;-83
2022/10/13 03:51:15;;;;;;;10.20;5.25;;;4.60;99.90;;;;;;4950029;28;20051;-83
2022/10/13 03:53:40;;;;;;;13.15;5.47;;;4.80;99.90;;;;;;4931564;29;20054;-83
2022/10/13 03:56:06;;;;;;;13.65;5.28;;;4.80;99.90;;;;;;4940643;29;20553;-83
2022/10/13 03:58:32;;;;;;;12.80;5.22;;;4.90;99.90;;;;;;4942319;28;21495;-83
2022/10/13 04:01:03;;;;;;;14.63;5.82;;;5.00;99.90;;;;;;4942031;29;20563;-83
2022/10/13 04:03:28;;;;;;;13.20;4.82;;;5.10;99.90;;;;;;4940325;29;20051;-83
2022/10/13 04:05:54;;;;;;;14.32;5.15;;;5.20;99.90;;;;;;4939563;29;20091;-83
2022/10/13 04:08:19;;;;;;;13.65;5.70;;;5.20;99.90;;;;;;4947176;28;20016;-83
2022/10/13 04:10:45;;;;;;;18.20;6.07;;;5.30;99.90;;;;;;4947928;28;20855;-84
2022/10/13 04:13:10;;;;;;;13.57;4.88;;;5.30;99.90;;;;;;4950734;28;20390;-83
2022/10/13 04:15:39;;;;;;;12.10;4.65;;;5.40;99.90;;;;;;4953001;28;20394;-83
2022/10/13 04:18:06;;;;;;;9.63;4.53;;;5.50;99.90;;;;;;4938944;28;20457;-83
2022/10/13 04:20:37;;;;;;;10.55;5.45;;;5.50;99.90;;;;;;4950830;29;20474;-83
2022/10/13 04:23:02;;;;;;;11.77;4.88;;;5.50;99.90;;;;;;4939502;28;20548;-83
2022/10/13 04:25:28;;;;;;;11.05;5.15;;;5.60;99.90;;;;;;4938539;29;20114;-83
2022/10/13 04:27:53;;;;;;;9.93;4.65;;;5.60;99.90;;;;;;4941544;28;20569;-82
2022/10/13 04:30:19;;;;;;;8.77;4.50;;;5.70;99.90;;;;;;4944661;29;20046;-83
2022/10/13 04:32:44;;;;;;;12.73;4.60;;;5.70;99.90;;;;;;4941203;29;20158;-83
2022/10/13 04:35:10;;;;;;;9.05;4.22;;;5.60;99.90;;;;;;4944471;29;20663;-83
2022/10/13 04:37:35;;;;;;;11.43;4.40;;;5.60;99.90;;;;;;4944631;29;20441;-83
2022/10/13 04:40:01;;;;;;;12.15;3.95;;;5.60;99.90;;;;;;4933462;29;20042;-82
2022/10/13 04:42:26;;;;;;;10.32;3.97;;;5.70;99.90;;;;;;4946762;28;20664;-83
2022/10/13 04:44:51;;;;;;;10.43;3.85;;;5.70;99.90;;;;;;4953165;29;20031;-83
2022/10/13 04:47:17;;;;;;;7.45;4.00;;;5.70;99.90;;;;;;4942192;28;20040;-83
2022/10/13 04:49:42;;;;;;;9.93;5.22;;;5.80;99.90;;;;;;4940258;29;20027;-83
2022/10/13 04:52:08;;;;;;;10.23;3.80;;;5.80;99.90;;;;;;4943412;29;20387;-82
2022/10/13 04:54:33;;;;;;;11.50;4.38;;;5.80;99.90;;;;;;4946954;28;20054;-82
2022/10/13 04:56:59;;;;;;;6.97;4.03;;;5.90;99.90;;;;;;4952651;29;20038;-82
2022/10/13 04:59:24;;;;;;;6.90;3.47;;;5.90;99.90;;;;;;4949354;28;20023;-82
2022/10/13 05:01:50;;;;;;;9.38;4.63;;;5.80;99.90;;;;;;4950966;28;20043;-82
2022/10/13 05:04:15;;;;;;;8.70;4.40;;;5.90;99.90;;;;;;4936523;29;20028;-82
2022/10/13 05:06:41;;;;;;;9.07;3.95;;;5.90;99.90;;;;;;4938864;29;20035;-83
2022/10/13 05:09:12;;;;;;;13.93;4.25;;;6.00;99.90;;;;;;4942670;29;20398;-82
2022/10/13 05:11:38;;;;;;;7.30;4.22;;;6.00;99.90;;;;;;4945423;28;20039;-83
2022/10/13 05:14:03;;;;;;;6.85;4.43;;;6.10;99.90;;;;;;4936941;29;20039;-83
2022/10/13 05:16:30;;;;;;;8.68;4.10;;;6.10;99.90;;;;;;4945102;29;20032;-83
2022/10/13 05:18:55;;;;;;;9.98;4.40;;;6.10;99.90;;;;;;4950825;29;20078;-82
2022/10/13 05:21:26;;;;;;;9.80;4.43;;;6.10;99.90;;;;;;4945446;28;20039;-83
2022/10/13 05:23:54;;;;;;;;;;;6.10;99.90;;;;;;4941204;29;20047;-82
2022/10/13 05:26:20;;;;;;;7.00;3.80;;;6.10;99.90;;;;;;4949433;29;20428;-82
2022/10/13 05:28:45;;;;;;;9.48;4.03;;;6.10;99.90;;;;;;4935350;28;20474;-82
2022/10/13 05:31:16;;;;;;;14.82;4.82;;;6.20;99.90;;;;;;4936279;29;20040;-83
2022/10/13 05:33:42;;;;;;;7.85;4.60;;;6.10;99.90;;;;;;4935727;28;20032;-83
2022/10/13 05:36:13;;;;;;;14.02;5.50;;;6.20;99.90;;;;;;4941221;28;20733;-82
2022/10/13 05:38:38;;;;;;;10.45;4.70;;;6.20;99.90;;;;;;4935428;28;20039;-83
2022/10/13 05:41:09;;;;;;;13.27;5.82;;;6.20;99.90;;;;;;4946627;29;20050;-82
2022/10/13 05:43:36;;;;;;;12.13;5.05;;;6.30;99.90;;;;;;4940135;28;20052;-83
2022/10/13 05:46:02;;;;;;;10.23;4.55;;;6.40;99.90;;;;;;4942023;28;20464;-82
2022/10/13 05:48:28;;;;;;;9.00;4.63;;;6.40;99.90;;;;;;4942635;29;20102;-82
2022/10/13 05:50:55;;;;;;;8.75;4.75;;;6.40;99.90;;;;;;4937928;28;20456;-83
2022/10/13 05:53:24;;;;;;;6.25;3.83;;;6.50;99.90;;;;;;4934358;29;20072;-83
2022/10/13 05:55:50;;;;;;;7.88;4.30;;;6.50;99.90;;;;;;4942857;28;20042;-83
2022/10/13 05:58:17;;;;;;;8.15;3.97;;;6.50;99.90;;;;;;4941718;29;20023;-83
2022/10/13 06:00:43;;;;;;;10.07;4.50;;;6.70;99.90;;;;;;4933955;28;20027;-82
2022/10/13 06:03:13;;;;;;;8.70;4.45;;;6.60;99.90;;;;;;4935997;28;20398;-85
2022/10/13 06:05:41;;;;;;;7.95;4.00;;;6.40;99.90;;;;;;4938906;28;20163;-78
2022/10/13 06:08:08;;;;;;;7.78;4.20;;;6.50;99.90;;;;;;4937153;28;20024;-79
2022/10/13 06:10:33;;;;;;;7.97;3.88;;;6.50;99.90;;;;;;4936645;29;20118;-79
2022/10/13 06:12:59;;;;;;;9.93;4.22;;;6.50;99.90;;;;;;4942932;28;20090;-79
2022/10/13 06:15:24;;;;;;;8.50;4.00;;;6.40;99.90;;;;;;4943538;29;20073;-80
2022/10/13 06:17:53;;;;;;;10.73;4.15;;;6.40;99.90;;;;;;4941454;29;20038;-80
2022/10/13 06:20:19;;;;;;;10.38;4.13;;;6.20;99.90;;;;;;4942341;29;20035;-80
2022/10/13 06:22:45;;;;;;;5.47;3.65;;;6.20;99.90;;;;;;4939127;29;20027;-79
2022/10/13 06:25:10;;;;;;;6.90;4.00;;;6.20;99.90;;;;;;4943547;28;20118;-79
2022/10/13 06:27:36;;;;;;;6.85;4.05;;;6.30;99.90;;;;;;4940182;28;20024;-84
2022/10/13 06:30:02;;;;;;;7.65;4.28;;;6.30;99.90;;;;;;4939432;29;20048;-81
2022/10/13 06:32:27;;;;;;;6.35;4.10;;;6.30;99.90;;;;;;4939442;28;20050;-78
2022/10/13 06:34:53;;;;;;;6.90;4.13;;;6.30;99.90;;;;;;4945277;28;20043;-79
2022/10/13 06:37:18;;;;;;;8.38;3.90;;;6.40;99.90;;;;;;4943890;29;20034;-77
2022/10/13 06:39:44;;;;;;;8.10;4.00;;;6.40;99.90;;;;;;4939739;29;20106;-78
2022/10/13 06:42:09;;;;;;;8.05;4.03;;;6.40;99.90;;;;;;4937406;29;20183;-77
2022/10/13 06:44:35;;;;;;;8.55;4.03;;;6.40;99.90;;;;;;4938967;29;20032;-77
2022/10/13 06:47:02;;;;;;;8.50;4.05;;;6.50;99.90;;;;;;4932469;29;20039;-79
2022/10/13 06:49:27;;;;;;;6.45;3.92;;;6.40;99.90;;;;;;4943010;28;20041;-78
2022/10/13 06:51:53;;;;;;;10.60;4.80;;;6.40;99.90;;;;;;4944245;29;20146;-79
2022/10/13 06:54:18;;;;;;;9.05;4.00;;;6.40;99.90;;;;;;4938817;29;20059;-79
2022/10/13 06:56:44;;;;;;;11.40;5.07;;;6.50;99.90;;;;;;4949202;29;20483;-80
2022/10/13 06:59:09;;;;;;;11.07;5.32;;;6.50;99.90;;;;;;4947315;28;20071;-82
2022/10/13 07:01:35;;;;;;;8.07;4.35;;;6.60;99.90;;;;;;4944596;28;20028;-83
2022/10/13 07:04:00;;;;;;;16.55;4.57;;;6.80;99.90;;;;;;4931015;28;20023;-77
2022/10/13 07:06:26;;;;;;;8.27;4.90;;;6.90;99.90;;;;;;4936540;29;20515;-79
2022/10/13 07:08:51;;;;;;;9.32;4.65;;;7.00;99.90;;;;;;4937673;29;20031;-77
2022/10/13 07:11:17;;;;;;;11.50;5.22;;;7.20;99.90;;;;;;4935445;29;20106;-77
2022/10/13 07:13:43;;;;;;;9.27;4.30;;;7.30;99.90;;;;;;4943757;28;20027;-79
2022/10/13 07:16:09;;;;;;;16.25;5.25;;;7.50;99.90;;;;;;4939189;28;20399;-78
2022/10/13 07:18:35;;;;;;;10.98;4.88;;;7.90;99.90;;;;;;4944431;28;20031;-77
2022/10/13 07:21:01;;;;;;;15.63;6.03;;;8.00;99.90;;;;;;4942910;28;20031;-77
2022/10/13 07:23:28;;;;;;;15.98;5.88;;;8.20;99.90;;;;;;4942944;28;20063;-76
2022/10/13 07:25:55;;;;;;;15.63;5.15;;;8.40;99.90;;;;;;4932768;29;20023;-76
2022/10/13 07:28:22;;;;;;;10.63;5.50;;;8.50;99.90;;;;;;4950425;28;20034;-76
2022/10/13 07:30:47;;;;;;;13.65;5.82;;;8.60;99.90;;;;;;4943558;28;20403;-79
2022/10/13 07:33:12;;;;;;;8.68;5.45;;;8.70;99.90;;;;;;4937004;28;20031;-77
2022/10/13 07:35:38;;;;;;;15.05;5.68;;;9.00;99.90;;;;;;4929828;28;20579;-77
2022/10/13 07:38:04;;;;;;;12.00;6.22;;;9.40;99.90;;;;;;4937930;29;20094;-77
2022/10/13 07:40:30;;;;;;;15.27;5.75;;;9.70;99.90;;;;;;4940491;28;20463;-76
2022/10/13 07:42:56;;;;;;;15.48;5.93;;;9.90;99.90;;;;;;4944818;28;20732;-77
2022/10/13 07:45:21;;;;;;;14.18;6.00;;;9.80;99.90;;;;;;4942928;28;20110;-77
2022/10/13 07:47:47;;;;;;;13.23;6.30;;;9.90;99.90;;;;;;4934681;28;20126;-77
2022/10/13 07:50:12;;;;;;;12.40;6.15;;;9.90;99.90;;;;;;4940628;28;20035;-78
2022/10/13 07:52:38;;;;;;;8.63;5.00;;;10.00;99.90;;;;;;4943968;29;20027;-77
2022/10/13 07:55:04;;;;;;;14.55;6.38;;;10.20;99.90;;;;;;4936401;29;20501;-77
2022/10/13 07:57:29;;;;;;;12.52;6.22;;;10.50;99.90;;;;;;4939099;28;20567;-78
2022/10/13 07:59:55;;;;;;;11.50;5.28;;;10.80;99.90;;;;;;4939165;28;20035;-76
2022/10/13 08:02:20;;;;;;;11.70;5.72;;;10.90;99.90;;;;;;4933243;29;20032;-78
2022/10/13 08:04:46;;;;;;;13.57;7.25;;;11.00;99.90;;;;;;4942884;29;20846;-77
2022/10/13 08:07:11;;;;;;;10.98;5.78;;;11.30;99.90;;;;;;4949793;29;20022;-77
2022/10/13 08:09:37;;;;;;;16.33;7.03;;;11.70;99.90;;;;;;4946475;29;20060;-77
2022/10/13 08:12:03;;;;;;;16.77;7.20;;;11.90;99.90;;;;;;4944205;28;20027;-78
2022/10/13 08:14:29;;;;;;;10.30;5.68;;;12.20;99.90;;;;;;4949823;28;20454;-78
2022/10/13 08:16:56;;;;;;;17.30;6.47;;;12.50;99.90;;;;;;4947986;28;20070;-77
2022/10/13 08:19:22;;;;;;;13.30;5.70;;;12.50;99.90;;;;;;4949662;28;20091;-77
2022/10/13 08:21:48;;;;;;;12.73;6.07;;;12.70;99.90;;;;;;4947234;28;20118;-78
2022/10/13 08:24:16;;;;;;;15.23;5.78;;;12.70;99.90;;;;;;4949768;28;20111;-77
2022/10/13 08:26:43;;;;;;;11.30;6.22;;;12.60;99.90;;;;;;4944258;28;20094;-77
2022/10/13 08:29:10;;;;;;;13.65;5.40;;;12.50;99.90;;;;;;4946319;28;20164;-78
2022/10/13 08:31:35;;;;;;;10.48;5.93;;;12.50;99.90;;;;;;4949586;28;20070;-78
2022/10/13 08:34:00;;;;;;;17.77;6.35;;;12.60;99.90;;;;;;4947297;29;20471;-77
2022/10/13 08:36:26;;;;;;;16.67;6.22;;;12.70;99.90;;;;;;4949251;29;20092;-78
2022/10/13 08:38:52;;;;;;;17.58;6.38;;;12.90;99.90;;;;;;4947912;29;20367;-78
2022/10/13 08:41:28;;;;;;;11.85;5.65;;;13.10;99.90;;;;;;4949410;28;20063;-78
2022/10/13 08:44:06;;;;;;;10.50;5.97;;;13.10;99.90;;;;;;4942639;28;20035;-78
2022/10/13 08:46:42;;;;;;;11.45;5.90;;;13.40;99.90;;;;;;4947461;28;20031;-77
2022/10/13 08:49:08;;;;;;;11.57;5.88;;;13.30;99.90;;;;;;4942865;28;20039;-79
2022/10/13 08:51:33;;;;;;;11.02;6.25;;;13.20;99.90;;;;;;4949434;29;20035;-78
2022/10/13 08:53:59;;;;;;;11.25;5.95;;;13.20;99.90;;;;;;4949493;28;20039;-78
2022/10/13 08:56:34;;;;;;;16.33;6.32;;;13.30;99.90;;;;;;4949176;28;20030;-78
2022/10/13 08:59:03;;;;;;;13.52;6.05;;;13.50;99.90;;;;;;4946129;28;20042;-78
2022/10/13 09:01:34;;;;;;;12.93;6.82;;;13.70;99.90;;;;;;4946110;28;20031;-78
2022/10/13 09:04:25;;;;;;;12.30;6.10;;;14.00;99.90;;;;;;4952523;28;20035;-78
2022/10/13 09:07:08;;;;;;;10.98;5.90;;;14.00;99.90;;;;;;4946141;28;20038;-79
2022/10/13 09:09:35;;;;;;;16.45;6.47;;;14.40;99.90;;;;;;4943810;29;20035;-78
2022/10/13 09:12:01;;;;;;;13.00;7.00;;;14.60;99.90;;;;;;4952211;28;20031;-77
2022/10/13 09:14:33;;;;;;;13.82;5.47;;;14.30;99.90;;;;;;4950613;28;20044;-77
2022/10/13 09:17:17;;;;;;;12.25;6.13;;;14.20;99.90;;;;;;4942743;28;20103;-77
2022/10/13 09:19:43;;;;;;;10.45;5.68;;;14.00;99.90;;;;;;4950446;29;20036;-78
2022/10/13 09:22:20;;;;;;;13.45;6.55;;;13.90;99.90;;;;;;4952043;28;20031;-77
2022/10/13 09:24:46;;;;;;;11.90;6.38;;;13.80;99.90;;;;;;4943892;28;20418;-78
2022/10/13 09:27:14;;;;;;;14.77;6.75;;;13.80;99.90;;;;;;4940284;29;20024;-77
2022/10/13 09:29:41;;;;;;;11.23;6.28;;;13.90;99.90;;;;;;4938503;29;20055;-77
2022/10/13 09:32:20;;;;;;;15.45;6.93;;;14.00;99.90;;;;;;4951821;28;20498;-78
2022/10/13 09:34:46;;;;;;;15.18;6.22;;;14.10;99.90;;;;;;4942970;28;20097;-77
2022/10/13 09:37:18;;;;;;;15.43;6.10;;;14.30;99.90;;;;;;4938785;28;20032;-78
2022/10/13 09:39:43;;;;;;;14.35;6.68;;;14.40;99.90;;;;;;4944580;28;20294;-78
2022/10/13 09:42:25;;;;;;;14.15;6.47;;;14.60;99.90;;;;;;4951758;29;20435;-78
2022/10/13 09:45:14;;;;;;;11.40;6.40;;;14.70;99.90;;;;;;4949434;28;20031;-77
2022/10/13 09:47:40;;;;;;;12.35;6.40;;;14.60;99.90;;;;;;4943244;28;20685;-78
2022/10/13 09:50:18;;;;;;;12.23;6.78;;;14.70;99.90;;;;;;4946540;29;20023;-78
2022/10/13 09:52:45;;;;;;;10.65;6.47;;;15.00;99.90;;;;;;4951441;28;20756;-78
2022/10/13 09:55:34;;;;;;;15.85;6.93;;;15.20;99.90;;;;;;4950411;28;20039;-77
2022/10/13 09:58:07;;;;;;;14.98;6.88;;;15.40;99.90;;;;;;4950903;28;20059;-78
2022/10/13 10:00:34;;;;;;;10.70;6.95;;;15.50;99.90;;;;;;4944074;28;20554;-79
2022/10/13 10:03:17;;;;;;;15.80;6.35;;;15.60;99.90;;;;;;4942691;29;20094;-78
2022/10/13 10:05:45;;;;;;;14.82;6.82;;;15.70;99.90;;;;;;4949737;28;20031;-77
2022/10/13 10:08:29;;;;;;;13.55;6.70;;;15.90;99.90;;;;;;4949953;28;20125;-78
2022/10/13 10:10:55;;;;;;;9.73;5.85;;;15.70;99.90;;;;;;4951125;29;20470;-79
2022/10/13 10:13:23;;;;;;;17.17;6.55;;;15.90;99.90;;;;;;4944122;28;20042;-78
2022/10/13 10:16:04;;;;;;;11.65;7.05;;;16.00;99.90;;;;;;4949895;28;20035;-79
2022/10/13 10:18:51;;;;;;;;;;;16.20;99.90;;;;;;4951768;28;20119;-78
2022/10/13 10:21:47;;;;;;;14.23;6.07;;;16.10;99.90;;;;;;4950800;28;20377;-78
2022/10/13 10:24:31;;;;;;;14.52;6.75;;;16.50;99.90;;;;;;4941079;28;20041;-78
2022/10/13 10:27:05;;;;;;;11.15;6.53;;;16.50;99.90;;;;;;4948670;29;20495;-78
2022/10/13 10:30:01;;;;;;;11.27;6.63;;;16.90;99.80;;;;;;4950748;28;20027;-78
2022/10/13 10:32:29;;;;;;;19.10;7.18;;;17.00;99.60;;;;;;4950301;29;20123;-78
2022/10/13 10:35:23;;;;;;;13.77;7.00;;;17.10;98.70;;;;;;4945578;28;20039;-78
2022/10/13 10:38:04;;;;;;;15.70;6.43;;;17.50;98.10;;;;;;4949329;28;20023;-77
2022/10/13 10:40:48;;;;;;;13.35;7.03;;;17.90;97.30;;;;;;4949494;28;20435;-78
2022/10/13 10:43:38;;;;;;;13.77;7.57;;;18.20;95.90;;;;;;4943172;29;20031;-77
2022/10/13 10:46:13;;;;;;;17.55;7.35;;;18.80;95.00;;;;;;4944550;28;20517;-77
2022/10/13 10:48:39;;;;;;;18.23;7.05;;;19.10;93.20;;;;;;4943370;29;20039;-78
2022/10/13 10:51:08;;;;;;;14.13;6.82;;;18.60;92.80;;;;;;4950071;29;20035;-79
2022/10/13 10:53:48;;;;;;;13.07;7.10;;;18.60;93.30;;;;;;4950431;28;20031;-78
2022/10/13 10:56:48;;;;;;;13.25;7.00;;;18.30;94.20;;;;;;4950987;28;20042;-78
2022/10/13 10:59:41;;;;;;;17.00;7.25;;;18.00;95.00;;;;;;4936880;28;20754;-78
2022/10/13 11:02:07;;;;;;;12.27;6.88;;;18.00;94.90;;;;;;4948869;28;20699;-77
2022/10/13 11:04:45;;;;;;;13.65;7.05;;;18.00;95.40;;;;;;4948308;29;20098;-78
2022/10/13 11:07:33;;;;;;;12.48;7.20;;;18.20;95.60;;;;;;4938745;28;20059;-78
2022/10/13 11:09:58;;;;;;;17.67;7.28;;;18.20;95.10;;;;;;4927593;28;20040;-77
2022/10/13 11:12:25;;;;;;;11.93;7.18;;;18.10;95.30;;;;;;4941122;29;20046;-78
2022/10/13 11:14:56;;;;;;;12.25;7.13;;;18.20;95.10;;;;;;4949883;28;20081;-78
2022/10/13 11:17:36;;;;;;;15.68;7.63;;;18.20;95.30;;;;;;4943571;29;20035;-77
2022/10/13 11:20:24;;;;;;;12.30;6.63;;;18.00;95.00;;;;;;4935356;29;20035;-78
2022/10/13 11:22:58;;;;;;;12.30;6.72;;;18.90;93.90;;;;;;4941531;29;20034;-77
2022/10/13 11:25:43;;;;;;;15.38;7.75;;;20.90;90.50;;;;;;4949692;29;20127;-78
2022/10/13 11:28:21;;;;;;;10.65;6.07;;;24.70;73.30;;;;;;4949674;28;20039;-77
2022/10/13 11:31:13;;;;;;;13.02;6.70;;;25.90;64.90;;;;;;4946776;29;20483;-78
2022/10/13 11:33:39;;;;;;;11.75;6.30;;;25.80;61.80;;;;;;4934556;28;20040;-77
2022/10/13 11:36:42;;;;;;;17.40;6.43;;;24.70;66.00;;;;;;4948369;29;20089;-78
2022/10/13 11:39:29;;;;;;;11.27;6.43;;;23.20;68.20;;;;;;4948980;28;20117;-77
2022/10/13 11:42:27;;;;;;;12.95;6.43;;;20.70;77.40;;;;;;4950135;29;20039;-78
2022/10/13 11:45:00;;;;;;;12.98;5.75;;;19.50;84.50;;;;;;4945877;28;20031;-78
2022/10/13 11:48:02;;;;;;;10.27;5.40;;;18.80;88.40;;;;;;4935954;28;20081;-78
2022/10/13 11:50:50;;;;;;;13.55;6.40;;;18.40;90.90;;;;;;4935760;28;20180;-77
2022/10/13 11:53:19;;;;;;;13.05;6.00;;;18.20;92.20;;;;;;4950132;28;20038;-79
2022/10/13 11:55:49;;;;;;;12.55;5.90;;;17.90;92.90;;;;;;4948685;28;20050;-77
2022/10/13 11:58:19;;;;;;;15.85;6.80;;;17.40;94.30;;;;;;4949698;29;20098;-78
2022/10/13 12:00:59;;;;;;;9.40;5.60;;;17.20;95.50;;;;;;4947570;28;20032;-77
2022/10/13 12:03:37;;;;;;;10.43;6.22;;;17.30;96.00;;;;;;4949164;28;20031;-78
2022/10/13 12:06:06;;;;;;;10.93;5.97;;;17.80;95.10;;;;;;4949404;28;20024;-79
2022/10/13 12:08:34;;;;;;;8.68;4.85;;;18.00;94.30;;;;;;4938664;29;20175;-79
2022/10/13 12:11:06;;;;;;;9.07;4.15;;;19.40;90.70;;;;;;4937927;28;20041;-78
2022/10/13 12:13:32;;;;;;;8.05;4.68;;;19.70;86.80;;;;;;4936586;29;20486;-77
2022/10/13 12:16:02;;;;;;;7.90;3.88;;;19.10;88.70;;;;;;4948575;28;20031;-78
2022/10/13 12:18:34;;;;;;;7.22;4.13;;;18.80;89.60;;;;;;4944284;28;20035;-78
2022/10/13 12:21:03;;;;;;;7.40;3.70;;;18.90;89.20;;;;;;4944345;29;20443;-78
2022/10/13 12:23:31;;;;;;;6.82;3.58;;;18.40;90.00;;;;;;4948290;28;20134;-78
2022/10/13 12:25:57;;;;;;;6.95;4.22;;;18.10;91.20;;;;;;4947646;28;20125;-78
2022/10/13 12:28:52;;;;;;;9.98;4.68;;;17.70;91.90;;;;;;4949987;28;20034;-78
2022/10/13 12:31:24;;;;;;;9.15;3.17;;;17.70;92.50;;;;;;4937835;29;20438;-79
2022/10/13 12:33:58;;;;;;;9.40;3.72;;;17.90;92.30;;;;;;4951282;28;20058;-79
2022/10/13 12:36:30;;;;;;;8.02;4.20;;;18.40;92.00;;;;;;4950350;28;20074;-78
2022/10/13 12:38:59;;;;;;;6.32;3.20;;;18.40;91.20;;;;;;4952798;28;20479;-78
2022/10/13 12:41:27;;;;;;;6.75;3.63;;;18.20;91.70;;;;;;4953121;28;20572;-77
2022/10/13 12:43:54;;;;;;;9.48;3.88;;;18.40;91.00;;;;;;4948234;28;20039;-78
2022/10/13 12:46:40;;;;;;;10.15;4.65;;;18.30;91.40;;;;;;4941441;29;20542;-78
2022/10/13 12:49:12;;;;;;;10.13;3.92;;;18.90;90.20;;;;;;4952933;28;20019;-77
2022/10/13 12:51:38;;;;;;;6.05;4.22;;;19.40;88.00;;;;;;4950195;28;20347;-78
2022/10/13 12:54:19;;;;;;;6.18;3.50;;;19.40;87.60;;;;;;4952120;28;20035;-78
2022/10/13 12:56:45;;;;;;;8.30;3.92;;;19.00;88.00;;;;;;4952510;28;20035;-78
2022/10/13 12:59:16;;;;;;;5.53;3.60;;;18.40;89.70;;;;;;4952527;28;20396;-78
2022/10/13 13:01:42;;;;;;;5.10;3.40;;;17.90;91.30;;;;;;4949923;28;20495;-80